sensor_id;sensor_type;location;lat;lon;timestamp;temperature;humidity
18648;DHT22;9453;50.294;18.644;2023-05-07T04:02:24;8.70;99.90
18648;DHT22;9453;50.294;18.644;2023-05-07T04:04:51;8.70;99.90
18648;DHT22;9453;50.294;18.644;2023-05-07T04:07:19;8.70;99.90
18648;DHT22;9453;50.294;18.644;2023-05-07T04:09:46;8.70;99.90
18648;DHT22;9453;50.294;18.644;2023-05-07T04:12:13;8.60;99.90
18648;DHT22;9453;50.294;18.644;2023-05-07T04:14:40;8.60;99.90
18648;DHT22;9453;50.294;18.644;2023-05-07T04:17:07;8.60;99.90
18648;DHT22;9453;50.294;18.644;2023-05-07T04:19:36;8.50;99.90
18648;DHT22;9453;50.294;18.644;2023-05-07T04:22:04;8.50;99.90
18648;DHT22;9453;50.294;18.644;2023-05-07T04:24:32;8.40;99.90
18648;DHT22;9453;50.294;18.644;2023-05-07T04:26:59;8.40;99.90
18648;DHT22;9453;50.294;18.644;2023-05-07T04:29:27;8.50;99.90
18648;DHT22;9453;50.294;18.644;2023-05-07T04:31:54;8.40;99.90
18648;DHT22;9453;50.294;18.644;2023-05-07T04:34:22;8.40;99.90
18648;DHT22;9453;50.294;18.644;2023-05-07T04:36:51;8.40;99.90
18648;DHT22;9453;50.294;18.644;2023-05-07T04:39:18;8.40;99.90
18648;DHT22;9453;50.294;18.644;2023-05-07T04:41:45;8.50;99.90
18648;DHT22;9453;50.294;18.644;2023-05-07T04:46:43;8.40;99.90
18648;DHT22;9453;50.294;18.644;2023-05-07T04:49:10;8.40;99.90
18648;DHT22;9453;50.294;18.644;2023-05-07T04:51:37;8.40;99.90
18648;DHT22;9453;50.294;18.644;2023-05-07T04:54:09;8.40;99.90
18648;DHT22;9453;50.294;18.644;2023-05-07T04:56:36;8.40;99.90
18648;DHT22;9453;50.294;18.644;2023-05-07T04:59:03;8.30;99.90
18648;DHT22;9453;50.294;18.644;2023-05-07T05:01:31;8.30;99.90
18648;DHT22;9453;50.294;18.644;2023-05-07T05:03:58;8.20;99.90
18648;DHT22;9453;50.294;18.644;2023-05-07T05:06:26;8.30;99.90
18648;DHT22;9453;50.294;18.644;2023-05-07T05:08:53;8.30;99.90
18648;DHT22;9453;50.294;18.644;2023-05-07T05:11:21;8.30;99.90
18648;DHT22;9453;50.294;18.644;2023-05-07T05:13:48;8.40;99.90
18648;DHT22;9453;50.294;18.644;2023-05-07T05:16:15;8.40;99.90
18648;DHT22;9453;50.294;18.644;2023-05-07T05:18:44;8.50;99.90
18648;DHT22;9453;50.294;18.644;2023-05-07T05:21:11;8.50;99.90
18648;DHT22;9453;50.294;18.644;2023-05-07T05:23:38;8.50;99.90
18648;DHT22;9453;50.294;18.644;2023-05-07T05:26:05;8.40;99.90
18648;DHT22;9453;50.294;18.644;2023-05-07T05:28:34;8.50;99.90
18648;DHT22;9453;50.294;18.644;2023-05-07T05:31:01;8.50;99.90
18648;DHT22;9453;50.294;18.644;2023-05-07T05:33:28;8.50;99.90
18648;DHT22;9453;50.294;18.644;2023-05-07T05:35:55;8.50;99.90
18648;DHT22;9453;50.294;18.644;2023-05-07T05:38:22;8.50;99.90
18648;DHT22;9453;50.294;18.644;2023-05-07T05:40:49;8.50;99.90
18648;DHT22;9453;50.294;18.644;2023-05-07T05:43:16;8.50;99.90
18648;DHT22;9453;50.294;18.644;2023-05-07T05:45:45;8.50;99.90
18648;DHT22;9453;50.294;18.644;2023-05-07T05:48:12;8.40;99.90
18648;DHT22;9453;50.294;18.644;2023-05-07T05:50:38;8.30;99.90
18648;DHT22;9453;50.294;18.644;2023-05-07T05:53:05;8.20;99.90
18648;DHT22;9453;50.294;18.644;2023-05-07T05:55:32;8.20;99.90
18648;DHT22;9453;50.294;18.644;2023-05-07T05:58:00;8.20;99.90
18648;DHT22;9453;50.294;18.644;2023-05-07T06:00:27;8.00;99.90
18648;DHT22;9453;50.294;18.644;2023-05-07T06:02:56;8.00;99.90
18648;DHT22;9453;50.294;18.644;2023-05-07T06:05:22;7.90;99.90
18648;DHT22;9453;50.294;18.644;2023-05-07T06:07:49;7.90;99.90
18648;DHT22;9453;50.294;18.644;2023-05-07T06:10:16;7.90;99.90
18648;DHT22;9453;50.294;18.644;2023-05-07T06:12:43;7.90;99.90
18648;DHT22;9453;50.294;18.644;2023-05-07T06:15:11;7.80;99.90
18648;DHT22;9453;50.294;18.644;2023-05-07T06:17:38;7.70;99.90
18648;DHT22;9453;50.294;18.644;2023-05-07T06:20:07;7.70;99.90
18648;DHT22;9453;50.294;18.644;2023-05-07T06:22:34;7.80;99.90
18648;DHT22;9453;50.294;18.644;2023-05-07T06:25:02;7.80;99.90
18648;DHT22;9453;50.294;18.644;2023-05-07T06:27:29;7.90;99.90
18648;DHT22;9453;50.294;18.644;2023-05-07T06:29:55;7.90;99.90
18648;DHT22;9453;50.294;18.644;2023-05-07T06:32:22;8.00;99.90
18648;DHT22;9453;50.294;18.644;2023-05-07T06:34:49;8.00;99.90
18648;DHT22;9453;50.294;18.644;2023-05-07T06:37:18;8.00;99.90
18648;DHT22;9453;50.294;18.644;2023-05-07T06:39:44;8.00;99.90
18648;DHT22;9453;50.294;18.644;2023-05-07T06:42:11;8.00;99.90
18648;DHT22;9453;50.294;18.644;2023-05-07T06:44:38;8.10;99.90
18648;DHT22;9453;50.294;18.644;2023-05-07T06:47:05;8.10;99.90
18648;DHT22;9453;50.294;18.644;2023-05-07T06:49:33;8.10;99.90
18648;DHT22;9453;50.294;18.644;2023-05-07T06:52:00;8.00;99.90
18648;DHT22;9453;50.294;18.644;2023-05-07T06:54:29;8.00;99.90
18648;DHT22;9453;50.294;18.644;2023-05-07T06:56:56;8.00;99.90
18648;DHT22;9453;50.294;18.644;2023-05-07T06:59:23;8.10;99.90
18648;DHT22;9453;50.294;18.644;2023-05-07T07:01:50;8.20;99.90
18648;DHT22;9453;50.294;18.644;2023-05-07T07:04:17;8.40;99.90
18648;DHT22;9453;50.294;18.644;2023-05-07T07:06:44;8.50;99.90
18648;DHT22;9453;50.294;18.644;2023-05-07T07:09:12;8.50;99.90
18648;DHT22;9453;50.294;18.644;2023-05-07T07:11:40;8.60;99.90
18648;DHT22;9453;50.294;18.644;2023-05-07T07:14:07;8.60;99.90
18648;DHT22;9453;50.294;18.644;2023-05-07T07:16:34;8.70;99.90
18648;DHT22;9453;50.294;18.644;2023-05-07T07:19:01;8.70;99.90
18648;DHT22;9453;50.294;18.644;2023-05-07T07:21:28;8.70;99.90
18648;DHT22;9453;50.294;18.644;2023-05-07T07:23:55;8.70;99.90
18648;DHT22;9453;50.294;18.644;2023-05-07T07:26:22;8.70;99.90
18648;DHT22;9453;50.294;18.644;2023-05-07T07:31:21;8.70;99.90
18648;DHT22;9453;50.294;18.644;2023-05-07T07:33:48;8.90;99.90
18648;DHT22;9453;50.294;18.644;2023-05-07T07:36:16;8.90;99.90
18648;DHT22;9453;50.294;18.644;2023-05-07T07:38:43;9.00;99.90
18648;DHT22;9453;50.294;18.644;2023-05-07T07:41:09;9.00;99.90
18648;DHT22;9453;50.294;18.644;2023-05-07T07:43:36;9.20;99.90
18648;DHT22;9453;50.294;18.644;2023-05-07T07:46:04;9.30;99.90
18648;DHT22;9453;50.294;18.644;2023-05-07T07:48:33;9.30;99.90
18648;DHT22;9453;50.294;18.644;2023-05-07T07:51:00;9.40;99.90
18648;DHT22;9453;50.294;18.644;2023-05-07T07:53:27;9.40;99.90
18648;DHT22;9453;50.294;18.644;2023-05-07T07:55:54;9.40;99.90
18648;DHT22;9453;50.294;18.644;2023-05-07T07:58:21;9.50;99.90
18648;DHT22;9453;50.294;18.644;2023-05-07T08:00:50;9.50;99.90
18648;DHT22;9453;50.294;18.644;2023-05-07T08:03:17;9.70;99.90
18648;DHT22;9453;50.294;18.644;2023-05-07T08:05:46;9.90;99.90
18648;DHT22;9453;50.294;18.644;2023-05-07T08:08:15;10.20;99.90
18648;DHT22;9453;50.294;18.644;2023-05-07T08:10:42;10.10;99.90
18648;DHT22;9453;50.294;18.644;2023-05-07T08:13:10;10.10;99.90
18648;DHT22;9453;50.294;18.644;2023-05-07T08:15:37;9.70;99.90
18648;DHT22;9453;50.294;18.644;2023-05-07T08:18:04;9.40;99.90
18648;DHT22;9453;50.294;18.644;2023-05-07T08:20:31;9.30;99.90
18648;DHT22;9453;50.294;18.644;2023-05-07T08:23:00;9.40;99.90
18648;DHT22;9453;50.294;18.644;2023-05-07T08:25:27;9.30;99.90
18648;DHT22;9453;50.294;18.644;2023-05-07T08:27:54;9.60;99.90
18648;DHT22;9453;50.294;18.644;2023-05-07T08:30:21;10.00;99.90
18648;DHT22;9453;50.294;18.644;2023-05-07T08:32:48;10.20;99.90
18648;DHT22;9453;50.294;18.644;2023-05-07T08:35:15;10.40;99.90
18648;DHT22;9453;50.294;18.644;2023-05-07T08:37:42;10.60;99.90
18648;DHT22;9453;50.294;18.644;2023-05-07T08:40:11;10.60;99.90
18648;DHT22;9453;50.294;18.644;2023-05-07T08:42:40;10.70;99.90
18648;DHT22;9453;50.294;18.644;2023-05-07T08:45:09;10.30;99.90
18648;DHT22;9453;50.294;18.644;2023-05-07T08:47:42;10.00;99.90
18648;DHT22;9453;50.294;18.644;2023-05-07T08:50:11;9.70;99.90
18648;DHT22;9453;50.294;18.644;2023-05-07T08:52:39;9.40;99.90
18648;DHT22;9453;50.294;18.644;2023-05-07T08:55:07;9.40;99.90
18648;DHT22;9453;50.294;18.644;2023-05-07T08:57:36;9.30;99.90
18648;DHT22;9453;50.294;18.644;2023-05-07T09:00:03;9.30;99.90
18648;DHT22;9453;50.294;18.644;2023-05-07T09:02:32;9.70;99.90
18648;DHT22;9453;50.294;18.644;2023-05-07T09:04:59;10.00;99.90
18648;DHT22;9453;50.294;18.644;2023-05-07T09:07:26;10.20;99.90
18648;DHT22;9453;50.294;18.644;2023-05-07T09:09:53;10.50;99.90
18648;DHT22;9453;50.294;18.644;2023-05-07T09:12:21;10.60;99.90
18648;DHT22;9453;50.294;18.644;2023-05-07T09:14:50;10.70;99.90
18648;DHT22;9453;50.294;18.644;2023-05-07T09:17:17;10.80;99.90
18648;DHT22;9453;50.294;18.644;2023-05-07T09:19:44;11.00;99.80
18648;DHT22;9453;50.294;18.644;2023-05-07T09:22:12;10.80;97.60
18648;DHT22;9453;50.294;18.644;2023-05-07T09:24:39;11.10;98.10
18648;DHT22;9453;50.294;18.644;2023-05-07T09:27:07;11.40;96.80
18648;DHT22;9453;50.294;18.644;2023-05-07T09:29:38;11.40;96.00
18648;DHT22;9453;50.294;18.644;2023-05-07T09:32:08;11.30;95.50
18648;DHT22;9453;50.294;18.644;2023-05-07T09:34:35;11.10;95.40
18648;DHT22;9453;50.294;18.644;2023-05-07T09:37:03;10.90;95.80
18648;DHT22;9453;50.294;18.644;2023-05-07T09:39:39;10.60;96.50
18648;DHT22;9453;50.294;18.644;2023-05-07T09:42:06;10.10;98.30
18648;DHT22;9453;50.294;18.644;2023-05-07T09:44:34;9.90;99.50
18648;DHT22;9453;50.294;18.644;2023-05-07T09:47:02;9.50;99.90
18648;DHT22;9453;50.294;18.644;2023-05-07T09:49:35;9.20;99.90
18648;DHT22;9453;50.294;18.644;2023-05-07T09:52:03;9.20;99.90
18648;DHT22;9453;50.294;18.644;2023-05-07T09:54:32;9.10;99.90
18648;DHT22;9453;50.294;18.644;2023-05-07T09:57:01;9.20;99.90
18648;DHT22;9453;50.294;18.644;2023-05-07T09:59:30;9.20;99.90
18648;DHT22;9453;50.294;18.644;2023-05-07T10:01:59;9.40;99.90
18648;DHT22;9453;50.294;18.644;2023-05-07T10:04:26;9.60;99.90
18648;DHT22;9453;50.294;18.644;2023-05-07T10:06:55;9.70;99.90
18648;DHT22;9453;50.294;18.644;2023-05-07T10:09:23;9.60;99.90
18648;DHT22;9453;50.294;18.644;2023-05-07T10:11:51;9.70;99.90
18648;DHT22;9453;50.294;18.644;2023-05-07T10:14:20;9.70;99.90
18648;DHT22;9453;50.294;18.644;2023-05-07T10:16:48;9.70;99.90
18648;DHT22;9453;50.294;18.644;2023-05-07T10:19:15;9.90;99.90
18648;DHT22;9453;50.294;18.644;2023-05-07T10:21:48;10.20;99.40
18648;DHT22;9453;50.294;18.644;2023-05-07T10:24:21;10.40;98.60
18648;DHT22;9453;50.294;18.644;2023-05-07T10:26:50;10.60;98.30
18648;DHT22;9453;50.294;18.644;2023-05-07T10:29:24;10.30;97.30
18648;DHT22;9453;50.294;18.644;2023-05-07T10:31:58;10.40;97.90
18648;DHT22;9453;50.294;18.644;2023-05-07T10:34:35;10.40;97.50
18648;DHT22;9453;50.294;18.644;2023-05-07T10:37:03;10.30;97.60
18648;DHT22;9453;50.294;18.644;2023-05-07T10:39:32;10.30;98.00
18648;DHT22;9453;50.294;18.644;2023-05-07T10:42:08;10.20;98.40
18648;DHT22;9453;50.294;18.644;2023-05-07T10:44:36;9.90;99.30
18648;DHT22;9453;50.294;18.644;2023-05-07T10:47:07;9.80;99.90
18648;DHT22;9453;50.294;18.644;2023-05-07T10:49:36;9.80;99.90
18648;DHT22;9453;50.294;18.644;2023-05-07T10:52:14;9.60;99.90
18648;DHT22;9453;50.294;18.644;2023-05-07T10:54:43;9.40;99.90
18648;DHT22;9453;50.294;18.644;2023-05-07T10:57:33;9.50;99.90
18648;DHT22;9453;50.294;18.644;2023-05-07T11:00:01;9.60;99.90
18648;DHT22;9453;50.294;18.644;2023-05-07T11:05:31;9.70;99.90
18648;DHT22;9453;50.294;18.644;2023-05-07T11:08:00;9.80;99.90
18648;DHT22;9453;50.294;18.644;2023-05-07T11:10:50;9.80;99.70
18648;DHT22;9453;50.294;18.644;2023-05-07T11:13:18;10.00;99.60
18648;DHT22;9453;50.294;18.644;2023-05-07T11:15:47;10.00;98.80
18648;DHT22;9453;50.294;18.644;2023-05-07T11:18:16;10.00;98.60
18648;DHT22;9453;50.294;18.644;2023-05-07T11:20:52;10.00;99.10
18648;DHT22;9453;50.294;18.644;2023-05-07T11:26:45;10.20;97.70
18648;DHT22;9453;50.294;18.644;2023-05-07T11:29:14;10.10;97.80
18648;DHT22;9453;50.294;18.644;2023-05-07T11:31:41;10.10;97.90
18648;DHT22;9453;50.294;18.644;2023-05-07T11:34:08;10.20;98.20
18648;DHT22;9453;50.294;18.644;2023-05-07T11:36:42;10.20;97.50
18648;DHT22;9453;50.294;18.644;2023-05-07T11:39:27;10.10;97.40
18648;DHT22;9453;50.294;18.644;2023-05-07T11:41:56;10.00;97.90
18648;DHT22;9453;50.294;18.644;2023-05-07T11:44:23;10.10;98.20
18648;DHT22;9453;50.294;18.644;2023-05-07T11:46:51;10.10;97.80
18648;DHT22;9453;50.294;18.644;2023-05-07T11:49:18;10.10;97.90
18648;DHT22;9453;50.294;18.644;2023-05-07T11:51:45;10.00;97.20
18648;DHT22;9453;50.294;18.644;2023-05-07T11:54:16;10.00;97.50
18648;DHT22;9453;50.294;18.644;2023-05-07T11:56:44;10.00;97.30
18648;DHT22;9453;50.294;18.644;2023-05-07T11:59:18;10.10;97.90
18648;DHT22;9453;50.294;18.644;2023-05-07T12:01:46;10.10;97.60
18648;DHT22;9453;50.294;18.644;2023-05-07T12:04:14;10.10;97.30
18648;DHT22;9453;50.294;18.644;2023-05-07T12:06:46;10.00;97.30
18648;DHT22;9453;50.294;18.644;2023-05-07T12:09:13;10.10;97.40
18648;DHT22;9453;50.294;18.644;2023-05-07T12:11:40;9.90;98.00
18648;DHT22;9453;50.294;18.644;2023-05-07T12:14:07;9.80;98.50
18648;DHT22;9453;50.294;18.644;2023-05-07T12:16:35;10.00;98.20
18648;DHT22;9453;50.294;18.644;2023-05-07T12:19:04;10.00;97.10
18648;DHT22;9453;50.294;18.644;2023-05-07T12:21:32;10.00;97.30
18648;DHT22;9453;50.294;18.644;2023-05-07T12:24:00;10.00;97.60
18648;DHT22;9453;50.294;18.644;2023-05-07T12:26:27;9.90;98.00
18648;DHT22;9453;50.294;18.644;2023-05-07T12:28:54;9.80;98.00
18648;DHT22;9453;50.294;18.644;2023-05-07T12:31:21;9.60;98.60
18648;DHT22;9453;50.294;18.644;2023-05-07T12:33:49;9.50;98.90
18648;DHT22;9453;50.294;18.644;2023-05-07T12:36:16;9.40;99.20
18648;DHT22;9453;50.294;18.644;2023-05-07T12:38:43;9.30;99.20
18648;DHT22;9453;50.294;18.644;2023-05-07T12:41:10;9.30;99.60
18648;DHT22;9453;50.294;18.644;2023-05-07T12:43:37;9.40;99.40
18648;DHT22;9453;50.294;18.644;2023-05-07T12:46:06;9.50;99.50
18648;DHT22;9453;50.294;18.644;2023-05-07T12:48:35;9.70;99.20
18648;DHT22;9453;50.294;18.644;2023-05-07T12:51:05;10.10;98.20
18648;DHT22;9453;50.294;18.644;2023-05-07T12:53:33;10.40;96.50
18648;DHT22;9453;50.294;18.644;2023-05-07T12:56:06;10.60;96.80
18648;DHT22;9453;50.294;18.644;2023-05-07T12:58:34;10.90;95.50
18648;DHT22;9453;50.294;18.644;2023-05-07T13:01:05;10.80;94.40
18648;DHT22;9453;50.294;18.644;2023-05-07T13:03:33;10.70;94.20
18648;DHT22;9453;50.294;18.644;2023-05-07T13:06:03;10.60;94.60
18648;DHT22;9453;50.294;18.644;2023-05-07T13:08:32;10.60;94.70
18648;DHT22;9453;50.294;18.644;2023-05-07T13:11:01;10.60;95.00
18648;DHT22;9453;50.294;18.644;2023-05-07T13:13:29;10.70;95.20
18648;DHT22;9453;50.294;18.644;2023-05-07T13:15:56;10.80;95.30
18648;DHT22;9453;50.294;18.644;2023-05-07T13:18:24;10.70;94.90
18648;DHT22;9453;50.294;18.644;2023-05-07T13:20:52;10.80;95.20
18648;DHT22;9453;50.294;18.644;2023-05-07T13:23:21;10.90;95.00
18648;DHT22;9453;50.294;18.644;2023-05-07T13:25:48;10.70;94.00
18648;DHT22;9453;50.294;18.644;2023-05-07T13:28:16;10.70;94.20
18648;DHT22;9453;50.294;18.644;2023-05-07T13:30:43;10.80;94.50
18648;DHT22;9453;50.294;18.644;2023-05-07T13:33:10;10.80;94.30
18648;DHT22;9453;50.294;18.644;2023-05-07T13:35:37;10.90;94.00
18648;DHT22;9453;50.294;18.644;2023-05-07T13:38:05;10.70;93.60
18648;DHT22;9453;50.294;18.644;2023-05-07T13:40:33;10.70;93.90
18648;DHT22;9453;50.294;18.644;2023-05-07T13:43:01;10.60;94.30
18648;DHT22;9453;50.294;18.644;2023-05-07T13:45:28;10.60;94.00
18648;DHT22;9453;50.294;18.644;2023-05-07T13:47:56;10.60;94.10
18648;DHT22;9453;50.294;18.644;2023-05-07T13:50:23;10.50;93.90
18648;DHT22;9453;50.294;18.644;2023-05-07T13:52:52;10.40;94.20
18648;DHT22;9453;50.294;18.644;2023-05-07T13:55:20;10.20;94.40
18648;DHT22;9453;50.294;18.644;2023-05-07T13:57:54;10.20;94.40
18648;DHT22;9453;50.294;18.644;2023-05-07T14:00:22;10.30;94.80
18648;DHT22;9453;50.294;18.644;2023-05-07T14:02:49;10.40;94.80
18648;DHT22;9453;50.294;18.644;2023-05-07T14:05:16;10.40;94.20
18648;DHT22;9453;50.294;18.644;2023-05-07T14:07:44;10.50;94.00
18648;DHT22;9453;50.294;18.644;2023-05-07T14:10:11;10.60;93.70
18648;DHT22;9453;50.294;18.644;2023-05-07T14:12:38;10.60;93.30
18648;DHT22;9453;50.294;18.644;2023-05-07T14:15:08;10.50;93.20
18648;DHT22;9453;50.294;18.644;2023-05-07T14:17:35;10.30;93.40
18648;DHT22;9453;50.294;18.644;2023-05-07T14:20:03;10.40;94.20
18648;DHT22;9453;50.294;18.644;2023-05-07T14:22:31;10.50;94.20
18648;DHT22;9453;50.294;18.644;2023-05-07T14:24:58;10.60;94.20
18648;DHT22;9453;50.294;18.644;2023-05-07T14:27:25;10.60;94.00
18648;DHT22;9453;50.294;18.644;2023-05-07T14:29:52;10.60;93.50
18648;DHT22;9453;50.294;18.644;2023-05-07T14:32:22;10.40;93.50
18648;DHT22;9453;50.294;18.644;2023-05-07T14:34:49;10.30;94.10
18648;DHT22;9453;50.294;18.644;2023-05-07T14:37:16;10.00;94.60
18648;DHT22;9453;50.294;18.644;2023-05-07T14:39:45;9.80;95.80
18648;DHT22;9453;50.294;18.644;2023-05-07T14:42:12;9.80;96.40
18648;DHT22;9453;50.294;18.644;2023-05-07T14:44:39;9.60;96.90
18648;DHT22;9453;50.294;18.644;2023-05-07T14:47:07;9.50;96.80
18648;DHT22;9453;50.294;18.644;2023-05-07T14:49:36;9.50;97.30
18648;DHT22;9453;50.294;18.644;2023-05-07T14:52:03;9.50;97.30
18648;DHT22;9453;50.294;18.644;2023-05-07T14:54:33;9.40;97.20
18648;DHT22;9453;50.294;18.644;2023-05-07T14:57:01;9.40;97.50
18648;DHT22;9453;50.294;18.644;2023-05-07T14:59:28;9.40;97.50
18648;DHT22;9453;50.294;18.644;2023-05-07T15:01:55;9.30;97.80
18648;DHT22;9453;50.294;18.644;2023-05-07T15:04:22;9.40;98.10
18648;DHT22;9453;50.294;18.644;2023-05-07T15:06:51;9.50;98.20
18648;DHT22;9453;50.294;18.644;2023-05-07T15:09:19;9.40;97.20
18648;DHT22;9453;50.294;18.644;2023-05-07T15:11:46;9.40;97.40
18648;DHT22;9453;50.294;18.644;2023-05-07T15:14:13;9.40;97.50
18648;DHT22;9453;50.294;18.644;2023-05-07T15:16:40;9.50;97.80
18648;DHT22;9453;50.294;18.644;2023-05-07T15:19:07;9.60;97.60
18648;DHT22;9453;50.294;18.644;2023-05-07T15:21:34;9.60;96.40
18648;DHT22;9453;50.294;18.644;2023-05-07T15:24:05;9.70;96.60
18648;DHT22;9453;50.294;18.644;2023-05-07T15:26:33;9.80;96.50
18648;DHT22;9453;50.294;18.644;2023-05-07T15:29:01;9.90;96.80
18648;DHT22;9453;50.294;18.644;2023-05-07T15:31:30;9.90;96.60
18648;DHT22;9453;50.294;18.644;2023-05-07T15:33:57;9.80;96.20
18648;DHT22;9453;50.294;18.644;2023-05-07T15:36:26;9.80;96.40
18648;DHT22;9453;50.294;18.644;2023-05-07T15:38:53;9.70;96.70
18648;DHT22;9453;50.294;18.644;2023-05-07T15:41:22;9.50;96.80
18648;DHT22;9453;50.294;18.644;2023-05-07T15:43:50;9.30;97.00
18648;DHT22;9453;50.294;18.644;2023-05-07T15:46:19;9.10;97.50
18648;DHT22;9453;50.294;18.644;2023-05-07T15:48:48;9.00;98.20
18648;DHT22;9453;50.294;18.644;2023-05-07T15:51:15;8.90;98.30
18648;DHT22;9453;50.294;18.644;2023-05-07T15:53:42;8.80;98.60
18648;DHT22;9453;50.294;18.644;2023-05-07T15:56:09;8.80;98.90
18648;DHT22;9453;50.294;18.644;2023-05-07T15:58:38;8.90;99.00
18648;DHT22;9453;50.294;18.644;2023-05-07T16:01:05;8.90;98.90
18648;DHT22;9453;50.294;18.644;2023-05-07T16:03:32;8.90;99.10
18648;DHT22;9453;50.294;18.644;2023-05-07T16:05:59;8.80;98.60
18648;DHT22;9453;50.294;18.644;2023-05-07T16:08:26;8.80;98.80
18648;DHT22;9453;50.294;18.644;2023-05-07T16:10:53;8.80;98.70
18648;DHT22;9453;50.294;18.644;2023-05-07T16:13:21;8.80;98.70
18648;DHT22;9453;50.294;18.644;2023-05-07T16:15:55;8.80;98.40
18648;DHT22;9453;50.294;18.644;2023-05-07T16:18:22;8.80;98.50
18648;DHT22;9453;50.294;18.644;2023-05-07T16:20:49;8.90;98.70
18648;DHT22;9453;50.294;18.644;2023-05-07T16:23:16;8.90;98.20
18648;DHT22;9453;50.294;18.644;2023-05-07T16:25:43;8.80;98.00
18648;DHT22;9453;50.294;18.644;2023-05-07T16:28:10;8.80;98.00
18648;DHT22;9453;50.294;18.644;2023-05-07T16:30:37;8.80;98.10
18648;DHT22;9453;50.294;18.644;2023-05-07T16:33:06;8.70;98.20
18648;DHT22;9453;50.294;18.644;2023-05-07T16:35:33;8.70;98.40
18648;DHT22;9453;50.294;18.644;2023-05-07T16:38:00;8.80;98.20
18648;DHT22;9453;50.294;18.644;2023-05-07T16:40:36;8.80;98.40
18648;DHT22;9453;50.294;18.644;2023-05-07T16:43:03;8.90;98.50
18648;DHT22;9453;50.294;18.644;2023-05-07T16:45:32;8.80;98.30
18648;DHT22;9453;50.294;18.644;2023-05-07T16:48:00;8.80;98.50
18648;DHT22;9453;50.294;18.644;2023-05-07T16:50:30;8.80;98.60
18648;DHT22;9453;50.294;18.644;2023-05-07T16:52:57;8.80;98.80
18648;DHT22;9453;50.294;18.644;2023-05-07T16:55:24;8.90;99.10
18648;DHT22;9453;50.294;18.644;2023-05-07T16:57:51;8.90;99.00
18648;DHT22;9453;50.294;18.644;2023-05-07T17:00:18;8.90;98.90
18648;DHT22;9453;50.294;18.644;2023-05-07T17:02:45;8.80;98.30
18648;DHT22;9453;50.294;18.644;2023-05-07T17:05:12;8.80;98.50
18648;DHT22;9453;50.294;18.644;2023-05-07T17:07:41;8.80;98.40
18648;DHT22;9453;50.294;18.644;2023-05-07T17:10:08;8.80;98.40
18648;DHT22;9453;50.294;18.644;2023-05-07T17:12:36;8.70;98.10
18648;DHT22;9453;50.294;18.644;2023-05-07T17:15:03;8.70;97.60
18648;DHT22;9453;50.294;18.644;2023-05-07T17:17:30;8.60;97.50
18648;DHT22;9453;50.294;18.644;2023-05-07T17:19:58;8.60;97.70
18648;DHT22;9453;50.294;18.644;2023-05-07T17:22:25;8.60;97.80
18648;DHT22;9453;50.294;18.644;2023-05-07T17:24:54;8.60;97.90
18648;DHT22;9453;50.294;18.644;2023-05-07T17:27:21;8.70;97.80
18648;DHT22;9453;50.294;18.644;2023-05-07T17:29:48;8.70;97.80
18648;DHT22;9453;50.294;18.644;2023-05-07T17:32:15;8.60;98.00
18648;DHT22;9453;50.294;18.644;2023-05-07T17:34:42;8.60;98.00
18648;DHT22;9453;50.294;18.644;2023-05-07T17:37:09;8.60;98.10
18648;DHT22;9453;50.294;18.644;2023-05-07T17:39:36;8.70;98.20
18648;DHT22;9453;50.294;18.644;2023-05-07T17:42:05;8.60;98.10
18648;DHT22;9453;50.294;18.644;2023-05-07T17:44:32;8.60;98.10
18648;DHT22;9453;50.294;18.644;2023-05-07T17:46:59;8.50;98.10
18648;DHT22;9453;50.294;18.644;2023-05-07T17:49:26;8.50;98.20
18648;DHT22;9453;50.294;18.644;2023-05-07T17:51:56;8.50;98.30
18648;DHT22;9453;50.294;18.644;2023-05-07T17:54:23;8.50;98.50
18648;DHT22;9453;50.294;18.644;2023-05-07T17:56:52;8.50;98.60
18648;DHT22;9453;50.294;18.644;2023-05-07T17:59:21;8.50;98.30
18648;DHT22;9453;50.294;18.644;2023-05-07T18:01:48;8.60;98.20
18648;DHT22;9453;50.294;18.644;2023-05-07T18:04:15;8.60;98.30
18648;DHT22;9453;50.294;18.644;2023-05-07T18:06:42;8.60;98.30
18648;DHT22;9453;50.294;18.644;2023-05-07T18:09:09;8.70;97.80
18648;DHT22;9453;50.294;18.644;2023-05-07T18:11:36;8.70;97.20
18648;DHT22;9453;50.294;18.644;2023-05-07T18:14:03;8.60;97.20
18648;DHT22;9453;50.294;18.644;2023-05-07T18:16:31;8.60;97.30
18648;DHT22;9453;50.294;18.644;2023-05-07T18:18:59;8.60;97.20
18648;DHT22;9453;50.294;18.644;2023-05-07T18:21:26;8.50;97.20
18648;DHT22;9453;50.294;18.644;2023-05-07T18:23:52;8.50;97.70
18648;DHT22;9453;50.294;18.644;2023-05-07T18:26:19;8.50;97.60
18648;DHT22;9453;50.294;18.644;2023-05-07T18:28:47;8.60;97.50
18648;DHT22;9453;50.294;18.644;2023-05-07T18:31:14;8.60;97.50
18648;DHT22;9453;50.294;18.644;2023-05-07T18:33:42;8.50;97.30
18648;DHT22;9453;50.294;18.644;2023-05-07T18:36:09;8.50;97.50
18648;DHT22;9453;50.294;18.644;2023-05-07T18:38:36;8.50;97.60
18648;DHT22;9453;50.294;18.644;2023-05-07T18:41:05;8.50;97.60
18648;DHT22;9453;50.294;18.644;2023-05-07T18:43:32;8.50;97.60
18648;DHT22;9453;50.294;18.644;2023-05-07T18:45:59;8.40;97.60
18648;DHT22;9453;50.294;18.644;2023-05-07T18:48:26;8.50;97.80
18648;DHT22;9453;50.294;18.644;2023-05-07T18:50:55;8.40;97.30
18648;DHT22;9453;50.294;18.644;2023-05-07T18:53:22;8.40;97.60
18648;DHT22;9453;50.294;18.644;2023-05-07T18:55:49;8.30;97.00
18648;DHT22;9453;50.294;18.644;2023-05-07T18:58:17;8.30;97.00
18648;DHT22;9453;50.294;18.644;2023-05-07T19:00:45;8.40;97.00
18648;DHT22;9453;50.294;18.644;2023-05-07T19:03:13;8.40;96.90
18648;DHT22;9453;50.294;18.644;2023-05-07T19:05:42;8.30;96.60
18648;DHT22;9453;50.294;18.644;2023-05-07T19:08:10;8.40;96.80
18648;DHT22;9453;50.294;18.644;2023-05-07T19:10:37;8.40;97.00
18648;DHT22;9453;50.294;18.644;2023-05-07T19:13:04;8.30;96.70
18648;DHT22;9453;50.294;18.644;2023-05-07T19:15:32;8.30;96.60
18648;DHT22;9453;50.294;18.644;2023-05-07T19:17:59;8.20;96.60
18648;DHT22;9453;50.294;18.644;2023-05-07T19:20:26;8.20;96.70
18648;DHT22;9453;50.294;18.644;2023-05-07T19:22:53;8.20;96.50
18648;DHT22;9453;50.294;18.644;2023-05-07T19:25:30;8.20;96.70
18648;DHT22;9453;50.294;18.644;2023-05-07T19:28:02;8.20;97.00
18648;DHT22;9453;50.294;18.644;2023-05-07T19:30:29;8.20;97.00
18648;DHT22;9453;50.294;18.644;2023-05-07T19:32:58;8.20;96.60
18648;DHT22;9453;50.294;18.644;2023-05-07T19:35:25;8.20;96.80
18648;DHT22;9453;50.294;18.644;2023-05-07T19:37:56;8.20;96.60
18648;DHT22;9453;50.294;18.644;2023-05-07T19:40:23;8.20;96.30
18648;DHT22;9453;50.294;18.644;2023-05-07T19:42:51;8.20;96.60
18648;DHT22;9453;50.294;18.644;2023-05-07T19:45:18;8.20;96.60
18648;DHT22;9453;50.294;18.644;2023-05-07T19:47:46;8.20;96.60
18648;DHT22;9453;50.294;18.644;2023-05-07T19:50:14;8.20;96.90
18648;DHT22;9453;50.294;18.644;2023-05-07T19:52:41;8.30;96.90
18648;DHT22;9453;50.294;18.644;2023-05-07T19:55:08;8.20;96.80
18648;DHT22;9453;50.294;18.644;2023-05-07T19:57:37;8.20;97.00
18648;DHT22;9453;50.294;18.644;2023-05-07T20:00:08;8.30;97.10